createdAt,value
2018-05-24T00:02:23.921Z,18.70
2018-05-24T00:04:52.957Z,18.70
2018-05-24T00:07:21.179Z,18.60
2018-05-24T00:09:49.515Z,18.60
2018-05-24T00:12:17.808Z,18.50
2018-05-24T00:14:46.072Z,18.50
2018-05-24T00:17:14.315Z,18.60
2018-05-24T00:19:42.907Z,18.60
2018-05-24T00:22:11.178Z,18.50
2018-05-24T00:24:39.424Z,18.40
2018-05-24T00:27:07.683Z,18.20
2018-05-24T00:29:36.695Z,18.20
2018-05-24T00:32:04.933Z,18.10
2018-05-24T00:34:33.235Z,18.20
2018-05-24T00:37:02.256Z,18.20
2018-05-24T00:39:30.517Z,18.20
2018-05-24T00:41:59.528Z,18.00
2018-05-24T00:44:27.760Z,18.00
2018-05-24T00:46:56.192Z,18.00
2018-05-24T00:49:25.927Z,18.10
2018-05-24T00:51:54.160Z,18.20
2018-05-24T00:54:23.440Z,18.10
2018-05-24T00:56:51.689Z,18.10
2018-05-24T00:59:19.920Z,18.00
2018-05-24T01:01:48.175Z,18.00
2018-05-24T01:04:16.492Z,17.90
2018-05-24T01:06:44.772Z,17.90
2018-05-24T01:09:13.781Z,18.10
2018-05-24T01:11:42.788Z,18.10
2018-05-24T01:14:11.029Z,18.10
2018-05-24T01:16:39.283Z,18.20
2018-05-24T01:19:07.952Z,18.30
2018-05-24T01:21:36.201Z,18.30
2018-05-24T01:24:05.956Z,18.40
2018-05-24T01:26:34.209Z,18.40
2018-05-24T01:29:03.256Z,18.50
2018-05-24T01:31:31.500Z,18.50
2018-05-24T01:33:59.746Z,18.40
2018-05-24T01:36:54.585Z,18.60
2018-05-24T01:39:22.836Z,18.60
2018-05-24T01:41:52.517Z,18.80
2018-05-24T01:44:20.773Z,18.70
2018-05-24T01:46:49.908Z,18.70
2018-05-24T01:49:18.151Z,18.70
2018-05-24T01:51:46.407Z,18.80
2018-05-24T01:54:15.390Z,18.90
2018-05-24T01:56:44.409Z,19.00
2018-05-24T01:59:12.683Z,18.90
2018-05-24T02:01:40.995Z,18.80
2018-05-24T02:04:09.220Z,18.90
2018-05-24T02:06:38.308Z,18.90
2018-05-24T02:09:06.536Z,18.90
2018-05-24T02:11:35.380Z,18.80
2018-05-24T02:14:03.628Z,18.70
2018-05-24T02:16:31.883Z,18.70
2018-05-24T02:19:00.239Z,18.70
2018-05-24T02:21:29.364Z,18.70
2018-05-24T02:23:57.600Z,18.60
2018-05-24T02:26:25.851Z,18.70
2018-05-24T02:28:54.077Z,18.60
2018-05-24T02:31:22.329Z,18.60
2018-05-24T02:33:50.675Z,18.60
2018-05-24T02:36:19.432Z,18.60
2018-05-24T02:38:47.684Z,18.50
2018-05-24T02:41:15.949Z,18.50
2018-05-24T02:43:44.184Z,18.60
2018-05-24T02:46:12.544Z,18.60
2018-05-24T02:48:40.822Z,18.40
2018-05-24T02:51:09.232Z,18.60
2018-05-24T02:53:37.469Z,18.40
2018-05-24T02:56:05.712Z,18.40
2018-05-24T02:58:34.712Z,18.30
2018-05-24T03:01:03.043Z,18.30
2018-05-24T03:03:31.309Z,18.40
2018-05-24T03:05:59.539Z,18.40
2018-05-24T03:08:28.548Z,18.50
2018-05-24T03:10:57.540Z,18.30
2018-05-24T03:13:26.561Z,18.30
2018-05-24T03:15:54.788Z,18.30
2018-05-24T03:18:23.928Z,17.60
2018-05-24T03:20:52.919Z,17.80
2018-05-24T03:23:21.934Z,17.50
2018-05-24T03:25:50.167Z,17.50
2018-05-24T03:28:18.609Z,17.50
2018-05-24T03:30:46.873Z,17.70
2018-05-24T03:33:15.882Z,17.80
2018-05-24T03:35:44.118Z,17.70
2018-05-24T03:38:12.400Z,17.80
2018-05-24T03:40:41.376Z,17.80
2018-05-24T03:43:09.629Z,17.70
2018-05-24T03:45:37.876Z,17.60
2018-05-24T03:48:06.883Z,17.60
2018-05-24T03:50:35.937Z,17.50
2018-05-24T03:53:04.248Z,17.50
2018-05-24T03:55:33.061Z,17.60
2018-05-24T03:58:02.095Z,17.50
2018-05-24T04:00:42.311Z,17.50
2018-05-24T04:03:22.519Z,17.60
2018-05-24T04:05:51.479Z,17.40
2018-05-24T04:08:20.335Z,17.40
2018-05-24T04:10:48.556Z,17.40
2018-05-24T04:13:16.909Z,17.30
2018-05-24T04:15:45.137Z,17.40
2018-05-24T04:18:13.405Z,17.60
2018-05-24T04:20:41.633Z,17.60
2018-05-24T04:23:09.975Z,17.50
2018-05-24T04:25:38.147Z,17.60
2018-05-24T04:28:06.400Z,17.70
2018-05-24T04:30:35.399Z,17.70
2018-05-24T04:33:04.508Z,17.70
2018-05-24T04:35:32.705Z,17.70
2018-05-24T04:38:00.968Z,17.70
2018-05-24T04:40:29.969Z,17.70
2018-05-24T04:42:58.998Z,17.30
2018-05-24T04:45:27.292Z,17.30
2018-05-24T04:47:55.548Z,17.50
2018-05-24T04:50:23.772Z,17.60
2018-05-24T04:52:52.488Z,17.50
2018-05-24T04:55:21.655Z,17.40
2018-05-24T04:57:50.609Z,17.20
2018-05-24T05:00:18.855Z,17.20
2018-05-24T05:02:47.127Z,17.00
2018-05-24T05:05:15.356Z,17.00
2018-05-24T05:07:43.614Z,17.10
2018-05-24T05:10:12.604Z,17.00
2018-05-24T05:12:41.673Z,17.00
2018-05-24T05:15:10.803Z,16.90
2018-05-24T05:17:39.197Z,17.10
2018-05-24T05:20:08.685Z,17.10
2018-05-24T05:22:36.974Z,17.10
2018-05-24T05:25:05.543Z,17.20
2018-05-24T05:27:33.693Z,17.20
2018-05-24T05:30:02.039Z,17.20
2018-05-24T05:32:31.042Z,17.20
2018-05-24T05:35:00.069Z,17.40
2018-05-24T05:37:28.298Z,17.30
2018-05-24T05:39:56.564Z,17.30
2018-05-24T05:42:24.825Z,17.10
2018-05-24T05:44:53.095Z,17.30
2018-05-24T05:47:22.059Z,17.30
2018-05-24T05:49:51.107Z,17.40
2018-05-24T05:52:20.117Z,17.40
2018-05-24T05:54:49.717Z,17.30
2018-05-24T05:57:18.059Z,17.30
2018-05-24T05:59:46.882Z,17.70
2018-05-24T06:02:15.118Z,17.70
2018-05-24T06:04:44.231Z,17.80
2018-05-24T06:07:13.248Z,17.80
2018-05-24T06:09:41.553Z,17.80
2018-05-24T06:12:10.521Z,18.00
2018-05-24T06:14:38.784Z,18.00
2018-05-24T06:17:07.802Z,17.90
2018-05-24T06:19:36.053Z,17.90
2018-05-24T06:22:04.287Z,18.10
2018-05-24T06:24:32.530Z,18.20
2018-05-24T06:27:01.548Z,18.20
2018-05-24T06:29:29.814Z,18.20
2018-05-24T06:31:58.864Z,18.30
2018-05-24T06:34:28.022Z,18.30
2018-05-24T06:36:57.023Z,18.30
2018-05-24T06:39:25.733Z,18.30
2018-05-24T06:41:53.968Z,18.30
2018-05-24T06:44:24.476Z,18.50
2018-05-24T06:46:52.709Z,18.50
2018-05-24T06:49:21.636Z,18.50
2018-05-24T06:51:49.913Z,18.50
2018-05-24T06:54:18.746Z,18.30
2018-05-24T06:56:46.959Z,18.40
2018-05-24T06:59:17.201Z,18.40
2018-05-24T07:01:45.446Z,18.50
2018-05-24T07:04:15.897Z,18.50
2018-05-24T07:06:44.139Z,18.50
2018-05-24T07:09:12.392Z,18.40
2018-05-24T07:11:41.072Z,18.40
2018-05-24T07:14:09.341Z,18.40
2018-05-24T07:16:37.623Z,18.40
2018-05-24T07:19:05.864Z,18.30
2018-05-24T07:21:34.110Z,18.40
2018-05-24T07:24:02.425Z,18.30
2018-05-24T07:26:30.692Z,18.30
2018-05-24T07:28:59.114Z,18.30
2018-05-24T07:31:28.580Z,18.10
2018-05-24T07:33:56.814Z,18.10
2018-05-24T07:36:25.206Z,18.10
2018-05-24T07:38:53.470Z,18.10
2018-05-24T07:41:23.058Z,18.10
2018-05-24T07:43:51.284Z,18.10
2018-05-24T07:46:19.601Z,17.90
2018-05-24T07:48:47.827Z,18.10
2018-05-24T07:51:16.096Z,18.30
2018-05-24T07:53:45.154Z,18.40
2018-05-24T07:56:13.755Z,18.40
2018-05-24T07:58:43.531Z,18.70
2018-05-24T08:01:11.912Z,18.70
2018-05-24T08:03:41.021Z,18.50
2018-05-24T08:06:09.283Z,18.50
2018-05-24T08:08:37.648Z,18.80
2018-05-24T08:11:05.841Z,18.80
2018-05-24T08:13:34.106Z,18.90
2018-05-24T08:16:03.303Z,19.00
2018-05-24T08:18:32.319Z,19.20
2018-05-24T08:21:01.537Z,19.30
2018-05-24T08:23:30.077Z,19.20
2018-05-24T08:25:58.468Z,19.30
2018-05-24T08:30:36.592Z,19.10
2018-05-24T08:33:04.840Z,19.30
2018-05-24T08:35:33.083Z,19.50
2018-05-24T08:38:02.078Z,19.70
2018-05-24T08:40:30.440Z,19.70
2018-05-24T08:42:59.490Z,20.00
2018-05-24T08:45:27.765Z,19.90
2018-05-24T08:47:56.093Z,20.00
2018-05-24T08:50:25.077Z,20.10
2018-05-24T08:52:53.308Z,19.90
2018-05-24T08:55:22.342Z,20.00
2018-05-24T08:57:50.595Z,20.00
2018-05-24T09:00:21.068Z,20.10
2018-05-24T09:02:49.319Z,20.10
2018-05-24T09:05:17.568Z,20.10
2018-05-24T09:07:45.820Z,20.20
2018-05-24T09:10:14.060Z,20.30
2018-05-24T09:12:42.895Z,20.30
2018-05-24T09:15:11.150Z,20.40
2018-05-24T09:17:39.391Z,20.40
2018-05-24T09:20:07.690Z,20.40
2018-05-24T09:22:37.786Z,20.40
2018-05-24T09:25:06.069Z,20.40
2018-05-24T09:27:34.314Z,20.40
2018-05-24T09:30:02.701Z,20.50
2018-05-24T09:32:31.686Z,20.60
2018-05-24T09:34:59.952Z,20.70
2018-05-24T09:37:29.712Z,20.70
2018-05-24T09:39:58.570Z,20.70
2018-05-24T09:42:26.861Z,20.80
2018-05-24T09:44:55.111Z,20.90
2018-05-24T09:47:24.170Z,21.10
2018-05-24T09:49:52.419Z,21.10
2018-05-24T09:52:20.744Z,21.10
2018-05-24T09:54:48.988Z,21.00
2018-05-24T09:57:17.250Z,21.00
2018-05-24T09:59:46.255Z,20.90
2018-05-24T10:02:14.530Z,21.00
2018-05-24T10:04:42.882Z,21.00
2018-05-24T10:07:11.835Z,21.30
2018-05-24T10:09:40.085Z,21.30
2018-05-24T10:12:09.081Z,21.20
2018-05-24T10:14:37.349Z,21.30
2018-05-24T10:17:05.630Z,21.40
2018-05-24T10:19:35.471Z,21.40
2018-05-24T10:22:03.796Z,21.40
2018-05-24T10:24:32.048Z,21.40
2018-05-24T10:27:00.929Z,21.40
2018-05-24T10:29:29.210Z,21.40
2018-05-24T10:31:57.424Z,21.50
2018-05-24T10:34:25.672Z,21.60
2018-05-24T10:36:53.920Z,21.60
2018-05-24T10:39:22.936Z,21.70
2018-05-24T10:41:51.970Z,21.70
2018-05-24T10:44:20.199Z,21.70
2018-05-24T10:46:49.221Z,22.20
2018-05-24T10:49:17.469Z,22.10
2018-05-24T10:51:45.744Z,22.50
2018-05-24T10:54:14.028Z,22.70
2018-05-24T10:56:42.325Z,23.00
2018-05-24T10:59:10.554Z,23.20
2018-05-24T11:01:38.824Z,23.40
2018-05-24T11:04:07.202Z,23.50
2018-05-24T11:06:36.071Z,23.60
2018-05-24T11:09:06.908Z,23.70
2018-05-24T11:11:37.249Z,23.70
2018-05-24T11:14:05.456Z,23.60
2018-05-24T11:16:34.124Z,23.60
2018-05-24T11:19:02.372Z,23.40
2018-05-24T11:21:30.625Z,23.20
2018-05-24T11:23:58.859Z,23.20
2018-05-24T11:26:27.868Z,23.00
2018-05-24T11:28:56.121Z,23.00
2018-05-24T11:31:26.023Z,23.10
2018-05-24T11:33:54.275Z,23.10
2018-05-24T11:36:23.377Z,23.30
2018-05-24T11:38:51.696Z,23.20
2018-05-24T11:41:19.950Z,23.50
2018-05-24T11:43:48.956Z,23.80
2018-05-24T11:46:17.246Z,23.70
2018-05-24T11:48:45.488Z,23.70
2018-05-24T11:51:13.755Z,23.70
2018-05-24T11:53:42.747Z,23.90
2018-05-24T11:56:11.759Z,23.90
2018-05-24T11:58:40.025Z,24.30
2018-05-24T12:01:09.184Z,24.50
2018-05-24T12:03:37.420Z,24.50
2018-05-24T12:06:05.699Z,24.70
2018-05-24T12:08:33.960Z,24.60
2018-05-24T12:11:02.972Z,24.60
2018-05-24T12:13:31.231Z,24.60
2018-05-24T12:16:00.316Z,25.30
2018-05-24T12:18:28.575Z,25.30
2018-05-24T12:20:56.805Z,26.10
2018-05-24T12:23:25.833Z,26.60
2018-05-24T12:25:54.058Z,26.50
2018-05-24T12:28:22.320Z,26.40
2018-05-24T12:30:51.405Z,26.30
2018-05-24T12:33:19.651Z,26.20
2018-05-24T12:35:48.669Z,26.50
2018-05-24T12:38:16.917Z,26.50
2018-05-24T12:40:45.923Z,26.00
2018-05-24T12:43:14.992Z,25.60
2018-05-24T12:45:43.381Z,25.60
2018-05-24T12:48:11.632Z,24.90
2018-05-24T12:50:39.886Z,24.40
2018-05-24T12:53:08.132Z,24.10
2018-05-24T12:55:36.397Z,23.70
2018-05-24T12:58:04.736Z,23.40
2018-05-24T13:00:33.671Z,23.20
2018-05-24T13:03:02.002Z,22.90
2018-05-24T13:05:30.992Z,22.60
2018-05-24T13:08:00.023Z,22.20
2018-05-24T13:10:28.257Z,22.20
2018-05-24T13:12:56.552Z,22.10
2018-05-24T13:15:24.794Z,21.90
2018-05-24T13:17:53.047Z,21.90
2018-05-24T13:20:22.062Z,21.40
2018-05-24T13:22:51.014Z,21.50
2018-05-24T13:25:20.012Z,21.40
2018-05-24T13:27:49.029Z,21.20
2018-05-24T13:30:17.253Z,21.20
2018-05-24T13:32:45.513Z,21.20
2018-05-24T13:35:13.763Z,21.30
2018-05-24T13:37:42.019Z,21.20
2018-05-24T13:40:11.021Z,21.10
2018-05-24T13:42:40.881Z,21.10
2018-05-24T13:45:09.135Z,21.10
2018-05-24T13:47:37.469Z,21.10
2018-05-24T13:50:05.736Z,21.10
2018-05-24T13:52:34.073Z,21.20
2018-05-24T13:55:02.279Z,21.30
2018-05-24T13:57:42.251Z,21.30
2018-05-24T14:00:10.871Z,21.10
2018-05-24T14:02:39.132Z,21.30
2018-05-24T14:05:08.109Z,21.40
2018-05-24T14:07:36.383Z,21.60
2018-05-24T14:10:04.663Z,21.80
2018-05-24T14:12:35.291Z,21.80
2018-05-24T14:15:04.352Z,21.80
2018-05-24T14:17:32.738Z,21.80
2018-05-24T14:20:00.939Z,21.80
2018-05-24T14:22:29.245Z,21.80
2018-05-24T14:24:57.555Z,21.70
2018-05-24T14:27:25.784Z,21.70
2018-05-24T14:29:54.030Z,21.70
2018-05-24T14:32:22.379Z,21.80
2018-05-24T14:34:51.474Z,21.80
2018-05-24T14:37:19.725Z,21.90
2018-05-24T14:39:48.744Z,22.00
2018-05-24T14:42:16.987Z,22.00
2018-05-24T14:44:46.008Z,22.10
2018-05-24T14:47:14.285Z,22.10
2018-05-24T14:49:44.291Z,22.30
2018-05-24T14:52:13.318Z,22.30
2018-05-24T14:54:42.083Z,22.40
2018-05-24T14:57:11.081Z,22.70
2018-05-24T14:59:40.103Z,22.70
2018-05-24T15:02:08.453Z,22.60
2018-05-24T15:04:36.728Z,22.60
2018-05-24T15:07:04.978Z,22.60
2018-05-24T15:09:33.591Z,22.50
2018-05-24T15:12:01.833Z,22.50
2018-05-24T15:14:30.079Z,22.50
2018-05-24T15:16:59.097Z,22.90
2018-05-24T15:19:27.644Z,22.90
2018-05-24T15:21:55.893Z,23.00
2018-05-24T15:24:24.145Z,23.10
2018-05-24T15:26:52.392Z,23.20
2018-05-24T15:29:21.432Z,23.20
2018-05-24T15:31:50.529Z,23.00
2018-05-24T15:34:18.793Z,23.00
2018-05-24T15:36:48.566Z,23.00
2018-05-24T15:39:16.839Z,23.00
2018-05-24T15:41:45.168Z,22.90
2018-05-24T15:44:14.191Z,22.70
2018-05-24T15:46:42.884Z,22.70
2018-05-24T15:49:11.166Z,22.50
2018-05-24T15:51:39.503Z,22.60
2018-05-24T15:54:07.753Z,22.40
2018-05-24T15:56:36.012Z,22.20
2018-05-24T15:59:04.900Z,22.00
2018-05-24T16:01:33.158Z,21.90
2018-05-24T16:04:02.187Z,22.00
2018-05-24T16:06:30.463Z,21.90
2018-05-24T16:08:58.725Z,22.00
2018-05-24T16:11:29.344Z,21.80
2018-05-24T16:13:58.368Z,21.90
2018-05-24T16:16:26.830Z,21.80
2018-05-24T16:18:55.093Z,21.70
2018-05-24T16:21:23.846Z,21.70
2018-05-24T16:23:52.097Z,21.50
2018-05-24T16:26:21.141Z,21.40
2018-05-24T16:28:49.398Z,21.40
2018-05-24T16:31:18.282Z,21.40
2018-05-24T16:33:47.285Z,21.40
2018-05-24T16:36:15.674Z,21.40
2018-05-24T16:38:43.965Z,21.50
2018-05-24T16:41:12.245Z,21.40
2018-05-24T16:43:41.114Z,21.50
2018-05-24T16:46:10.127Z,21.50
2018-05-24T16:48:38.430Z,21.40
2018-05-24T16:51:07.371Z,21.50
2018-05-24T16:53:36.339Z,21.50
2018-05-24T16:56:04.624Z,21.40
2018-05-24T16:58:34.122Z,21.30
2018-05-24T17:01:02.371Z,21.20
2018-05-24T17:03:31.400Z,21.10
2018-05-24T17:05:59.683Z,21.00
2018-05-24T17:08:27.908Z,21.00
2018-05-24T17:10:56.957Z,20.90
2018-05-24T17:13:26.103Z,20.90
2018-05-24T17:15:55.115Z,20.70
2018-05-24T17:18:24.237Z,20.80
2018-05-24T17:20:52.509Z,20.70
2018-05-24T17:23:21.535Z,20.80
2018-05-24T17:25:49.934Z,20.80
2018-05-24T17:28:18.202Z,20.80
2018-05-24T17:30:47.269Z,20.70
2018-05-24T17:33:15.623Z,20.70
2018-05-24T17:35:43.899Z,20.80
2018-05-24T17:38:12.151Z,20.80
2018-05-24T17:40:40.429Z,20.80
2018-05-24T17:43:09.925Z,20.70
2018-05-24T17:45:38.964Z,20.70
2018-05-24T17:48:08.109Z,20.70
2018-05-24T17:50:37.013Z,20.70
2018-05-24T17:53:06.680Z,20.70
2018-05-24T17:55:35.642Z,20.70
2018-05-24T17:58:04.371Z,20.70
2018-05-24T18:00:32.678Z,20.60
2018-05-24T18:03:00.941Z,20.40
2018-05-24T18:05:29.211Z,20.50
2018-05-24T18:07:59.070Z,20.50
2018-05-24T18:10:28.175Z,20.50
2018-05-24T18:12:56.455Z,20.50
2018-05-24T18:15:25.492Z,20.50
2018-05-24T18:17:54.347Z,20.50
2018-05-24T18:20:22.619Z,20.50
2018-05-24T18:22:51.901Z,20.40
2018-05-24T18:25:20.144Z,20.40
2018-05-24T18:27:48.403Z,20.30
2018-05-24T18:30:17.609Z,20.30
2018-05-24T18:32:47.569Z,20.30
2018-05-24T18:35:15.833Z,20.30
2018-05-24T18:37:44.135Z,20.30
2018-05-24T18:40:12.413Z,20.30
2018-05-24T18:42:40.776Z,20.30
2018-05-24T18:45:09.053Z,20.10
2018-05-24T18:47:37.383Z,20.10
2018-05-24T18:50:05.665Z,20.10
2018-05-24T18:52:33.997Z,20.20
2018-05-24T18:55:02.281Z,20.10
2018-05-24T18:57:30.574Z,20.00
2018-05-24T18:59:58.833Z,20.10
2018-05-24T19:02:27.143Z,20.10
2018-05-24T19:04:55.380Z,20.10
2018-05-24T19:07:24.868Z,20.00
2018-05-24T19:09:53.151Z,20.00
2018-05-24T19:12:21.468Z,20.00
2018-05-24T19:14:49.726Z,20.10
2018-05-24T19:17:18.769Z,19.90
2018-05-24T19:19:47.256Z,19.90
2018-05-24T19:22:15.526Z,20.00
2018-05-24T19:24:43.771Z,20.00
2018-05-24T19:27:12.823Z,19.90
2018-05-24T19:29:41.110Z,19.90
2018-05-24T19:32:09.363Z,19.80
2018-05-24T19:34:37.631Z,19.80
2018-05-24T19:37:06.688Z,19.90
2018-05-24T19:39:34.962Z,19.80
2018-05-24T19:42:04.199Z,19.80
2018-05-24T19:44:33.709Z,19.80
2018-05-24T19:47:02.803Z,19.90
2018-05-24T19:49:32.696Z,19.70
2018-05-24T19:52:00.967Z,19.70
2018-05-24T19:54:29.240Z,19.80
2018-05-24T19:56:57.589Z,19.90
2018-05-24T19:59:25.851Z,19.90
2018-05-24T20:01:55.238Z,19.80
2018-05-24T20:04:23.696Z,19.80
2018-05-24T20:06:52.029Z,19.80
2018-05-24T20:09:21.941Z,19.80
2018-05-24T20:11:50.988Z,19.70
2018-05-24T20:14:19.489Z,19.70
2018-05-24T20:16:47.776Z,19.80
2018-05-24T20:19:16.640Z,19.80
2018-05-24T20:21:44.927Z,19.80
2018-05-24T20:24:13.175Z,19.80
2018-05-24T20:26:42.231Z,19.70
2018-05-24T20:29:10.509Z,19.70
2018-05-24T20:31:38.820Z,19.70
2018-05-24T20:34:07.098Z,19.70
2018-05-24T20:36:35.357Z,19.80
2018-05-24T20:39:03.678Z,19.80
2018-05-24T20:41:32.148Z,19.80
2018-05-24T20:44:00.468Z,19.70
2018-05-24T20:46:30.775Z,19.60
2018-05-24T20:48:59.015Z,19.70
2018-05-24T20:51:27.275Z,19.60
2018-05-24T20:53:55.662Z,19.70
2018-05-24T20:56:23.969Z,19.70
2018-05-24T20:58:52.221Z,19.60
2018-05-24T21:01:20.479Z,19.70
2018-05-24T21:03:48.807Z,19.60
2018-05-24T21:06:17.823Z,19.60
2018-05-24T21:08:46.556Z,19.60
2018-05-24T21:11:14.814Z,19.70
2018-05-24T21:13:44.636Z,19.50
2018-05-24T21:16:13.444Z,19.50
2018-05-24T21:18:42.563Z,19.50
2018-05-24T21:21:11.572Z,19.50
2018-05-24T21:23:40.581Z,19.50
2018-05-24T21:26:08.857Z,19.50
2018-05-24T21:28:37.608Z,19.40
2018-05-24T21:31:06.631Z,19.20
2018-05-24T21:33:34.920Z,19.20
2018-05-24T21:36:03.148Z,19.30
2018-05-24T21:38:32.216Z,19.30
2018-05-24T21:41:00.490Z,19.30
2018-05-24T21:43:28.849Z,19.30
2018-05-24T21:45:57.103Z,19.30
2018-05-24T21:48:26.997Z,19.30
2018-05-24T21:50:55.983Z,19.30
2018-05-24T21:53:24.231Z,19.20
2018-05-24T21:55:52.476Z,19.10
2018-05-24T21:58:21.511Z,19.10
2018-05-24T22:00:50.760Z,19.10
2018-05-24T22:03:19.791Z,19.20
2018-05-24T22:05:48.806Z,19.10
2018-05-24T22:08:17.095Z,19.10
2018-05-24T22:10:45.335Z,19.10
2018-05-24T22:13:14.382Z,19.20
2018-05-24T22:15:42.627Z,19.10
2018-05-24T22:18:11.719Z,19.20
2018-05-24T22:20:40.762Z,19.10
2018-05-24T22:23:09.040Z,19.10
2018-05-24T22:25:37.373Z,19.00
2018-05-24T22:28:06.523Z,19.10
2018-05-24T22:30:34.761Z,19.10
2018-05-24T22:33:03.127Z,19.00
2018-05-24T22:35:31.415Z,19.00
2018-05-24T22:37:59.703Z,19.00
2018-05-24T22:40:28.019Z,18.90
2018-05-24T22:42:57.012Z,18.90
2018-05-24T22:45:26.188Z,18.90
2018-05-24T22:47:54.525Z,18.90
2018-05-24T22:50:24.186Z,18.80
2018-05-24T22:52:52.428Z,18.80
2018-05-24T22:55:20.692Z,18.80
2018-05-24T22:57:48.958Z,18.70
2018-05-24T23:00:17.784Z,18.70
2018-05-24T23:02:46.062Z,18.70
2018-05-24T23:05:14.363Z,18.80
2018-05-24T23:07:42.605Z,18.70
2018-05-24T23:10:10.893Z,18.60
2018-05-24T23:12:39.196Z,18.60
2018-05-24T23:15:07.700Z,18.50
2018-05-24T23:17:36.216Z,18.70
2018-05-24T23:20:04.552Z,18.60
2018-05-24T23:22:37.692Z,18.60
2018-05-24T23:25:06.739Z,18.60
2018-05-24T23:27:35.024Z,18.60
2018-05-24T23:30:03.293Z,18.60
2018-05-24T23:32:31.668Z,18.60
2018-05-24T23:34:59.920Z,18.50
2018-05-24T23:37:28.948Z,18.70
2018-05-24T23:39:57.347Z,18.70
2018-05-24T23:42:26.460Z,18.50
2018-05-24T23:44:54.739Z,18.50
2018-05-24T23:47:23.040Z,18.40
2018-05-24T23:49:51.325Z,18.40
2018-05-24T23:52:19.599Z,18.40
2018-05-24T23:54:47.880Z,18.30
2018-05-24T23:57:17.008Z,18.40
2018-05-24T23:59:46.124Z,18.40
